Time;durP1;ratioP1;P1;durP2;ratioP2;P2;SDS_P1;SDS_P2;PMS_P1;PMS_P2;Temp;Humidity;BMP_temperature;BMP_pressure;BME280_temperature;BME280_humidity;BME280_pressure;Samples;Min_cycle;Max_cycle;Signal;HPM_P1;HPM_P2
2022/04/29 00:00:34;;;;;;;6.47;4.90;;;;;;;;;;4997778;28;20171;-82
2022/04/29 00:03:38;;;;;;;6.27;4.73;;;;;;;;;;5020232;28;20213;-82
2022/04/29 00:06:42;;;;;;;6.93;4.67;;;;;;;;;;5020556;28;20182;-82
2022/04/29 00:09:46;;;;;;;5.80;4.87;;;;;;;;;;4998083;28;20215;-82
2022/04/29 00:12:51;;;;;;;7.97;4.53;;;;;;;;;;5008594;28;20214;-82
2022/04/29 00:15:55;;;;;;;8.57;4.73;;;;;;;;;;5020135;28;20178;-82
2022/04/29 00:18:59;;;;;;;5.53;4.80;;;;;;;;;;5008931;28;20186;-82
2022/04/29 00:22:04;;;;;;;5.47;4.37;;;;;;;;;;5008107;28;20178;-82
2022/04/29 00:25:08;;;;;;;7.60;4.50;;;;;;;;;;5008655;28;20179;-82
2022/04/29 00:28:12;;;;;;;5.93;4.70;;;;;;;;;;5008242;28;20186;-82
2022/04/29 00:31:17;;;;;;;6.93;4.60;;;;;;;;;;4997360;28;20202;-82
2022/04/29 00:34:21;;;;;;;5.53;4.73;;;;;;;;;;5008253;28;20229;-82
2022/04/29 00:37:25;;;;;;;5.67;5.07;;;;;;;;;;5019708;28;20632;-82
2022/04/29 00:40:31;;;;;;;5.90;5.10;;;;;;;;;;5019637;28;20188;-82
2022/04/29 00:43:35;;;;;;;5.97;5.07;;;;;;;;;;5007664;28;20217;-82
2022/04/29 00:46:41;;;;;;;5.80;5.00;;;;;;;;;;5019782;28;20182;-82
2022/04/29 00:49:47;;;;;;;5.70;4.80;;;;;;;;;;5007871;28;20209;-82
2022/04/29 00:52:59;;;;;;;6.43;5.20;;;;;;;;;;5007220;28;20226;-82
2022/04/29 00:56:04;;;;;;;6.70;5.67;;;;;;;;;;5007966;28;20174;-82
2022/04/29 00:59:16;;;;;;;6.70;5.30;;;;;;;;;;5007754;28;20186;-82
2022/04/29 01:02:21;;;;;;;6.20;5.37;;;;;;;;;;5018751;28;20175;-82
2022/04/29 01:05:26;;;;;;;6.23;5.60;;;;;;;;;;4996588;28;20549;-82
2022/04/29 01:08:31;;;;;;;9.27;5.27;;;;;;;;;;5007645;28;20183;-82
2022/04/29 01:11:35;;;;;;;5.43;4.87;;;;;;;;;;5007590;28;20206;-82
2022/04/29 01:14:39;;;;;;;6.97;5.20;;;;;;;;;;5007153;28;20178;-82
2022/04/29 01:17:45;;;;;;;10.90;5.43;;;;;;;;;;4996270;28;20202;-82
2022/04/29 01:21:01;;;;;;;7.70;5.03;;;;;;;;;;5018994;28;20198;-82
2022/04/29 01:24:07;;;;;;;6.10;5.00;;;;;;;;;;5007334;28;20221;-82
2022/04/29 01:27:12;;;;;;;6.23;5.63;;;;;;;;;;5006987;28;20178;-82
2022/04/29 01:30:17;;;;;;;6.03;5.43;;;;;;;;;;5007027;28;20933;-82
2022/04/29 01:33:22;;;;;;;6.40;5.50;;;;;;;;;;4995722;28;20227;-82
2022/04/29 01:36:25;;;;;;;6.00;5.17;;;;;;;;;;4995958;28;20182;-82
2022/04/29 01:39:31;;;;;;;7.73;5.33;;;;;;;;;;4995858;28;20186;-82
2022/04/29 01:42:36;;;;;;;7.63;5.80;;;;;;;;;;5006908;28;20684;-82
2022/04/29 01:45:40;;;;;;;6.33;5.43;;;;;;;;;;5007356;28;20534;-82
2022/04/29 01:48:58;;;;;;;6.13;5.23;;;;;;;;;;5007018;28;20547;-82
2022/04/29 01:52:11;;;;;;;6.67;5.40;;;;;;;;;;5006467;28;20194;-82
2022/04/29 01:55:15;;;;;;;6.70;5.67;;;;;;;;;;5007073;28;20609;-82
2022/04/29 01:58:19;;;;;;;8.90;5.97;;;;;;;;;;5017625;28;20182;-82
2022/04/29 02:01:23;;;;;;;8.33;5.73;;;;;;;;;;4995463;28;20182;-82
2022/04/29 02:04:27;;;;;;;7.77;6.40;;;;;;;;;;5006765;28;20629;-82
2022/04/29 02:07:32;;;;;;;7.83;6.23;;;;;;;;;;4995088;28;20182;-82
2022/04/29 02:10:36;;;;;;;8.33;6.03;;;;;;;;;;5006448;28;20598;-82
2022/04/29 02:13:41;;;;;;;8.93;6.00;;;;;;;;;;5006296;28;21022;-82
2022/04/29 02:16:59;;;;;;;6.23;5.63;;;;;;;;;;4995440;28;20593;-82
2022/04/29 02:20:04;;;;;;;6.87;6.00;;;;;;;;;;4994782;28;20542;-82
2022/04/29 02:23:10;;;;;;;6.10;5.30;;;;;;;;;;5005914;28;20633;-82
2022/04/29 02:26:16;;;;;;;7.37;5.70;;;;;;;;;;5005817;28;20545;-82
2022/04/29 02:29:20;;;;;;;6.50;5.70;;;;;;;;;;4994391;28;20637;-82
2022/04/29 02:32:25;;;;;;;7.90;5.77;;;;;;;;;;5006068;28;20538;-82
2022/04/29 02:35:29;;;;;;;6.37;5.77;;;;;;;;;;4994549;28;20546;-82
2022/04/29 02:38:33;;;;;;;6.67;5.97;;;;;;;;;;5006134;28;20538;-82
2022/04/29 02:41:40;;;;;;;7.53;5.67;;;;;;;;;;4994867;28;21080;-82
2022/04/29 02:44:44;;;;;;;6.40;5.70;;;;;;;;;;5005867;28;20561;-82
2022/04/29 02:47:49;;;;;;;6.57;5.80;;;;;;;;;;5005681;28;20538;-81
2022/04/29 02:50:53;;;;;;;6.63;5.93;;;;;;;;;;4993951;28;20593;-81
2022/04/29 02:53:58;;;;;;;8.93;6.87;;;;;;;;;;4994126;28;21182;-82
2022/04/29 02:57:03;;;;;;;7.33;6.50;;;;;;;;;;5006079;28;20592;-82
2022/04/29 03:00:25;;;;;;;9.23;6.83;;;;;;;;;;5016962;28;20538;-82
2022/04/29 03:03:29;;;;;;;7.40;6.43;;;;;;;;;;5016770;28;20621;-81
2022/04/29 03:06:34;;;;;;;7.50;6.70;;;;;;;;;;5006200;28;20537;-83
2022/04/29 03:09:38;;;;;;;9.77;6.73;;;;;;;;;;4994800;28;20553;-80
2022/04/29 03:12:43;;;;;;;9.17;7.20;;;;;;;;;;5004666;28;20613;-80
2022/04/29 03:15:50;;;;;;;7.83;6.93;;;;;;;;;;5014800;28;20597;-81
2022/04/29 03:18:54;;;;;;;9.50;6.43;;;;;;;;;;4981346;28;20581;-81
2022/04/29 03:21:59;;;;;;;11.80;6.30;;;;;;;;;;5004848;28;20934;-81
2022/04/29 03:25:06;;;;;;;9.20;6.63;;;;;;;;;;4992459;28;20609;-82
2022/04/29 03:28:09;;;;;;;9.80;6.53;;;;;;;;;;5016182;28;20601;-82
2022/04/29 03:31:14;;;;;;;9.07;6.20;;;;;;;;;;4993318;28;20593;-81
2022/04/29 03:34:36;;;;;;;8.90;6.50;;;;;;;;;;5003218;28;20566;-84
2022/04/29 03:37:41;;;;;;;6.43;5.80;;;;;;;;;;4989857;28;20609;-83
2022/04/29 03:40:46;;;;;;;7.97;6.97;;;;;;;;;;4984460;28;20569;-82
2022/04/29 03:43:51;;;;;;;7.37;6.33;;;;;;;;;;5015792;28;20633;-80
2022/04/29 03:47:01;;;;;;;7.23;6.53;;;;;;;;;;4992110;28;20601;-80
2022/04/29 03:50:32;;;;;;;8.47;6.67;;;;;;;;;;5008775;28;20605;-80
2022/04/29 03:53:48;;;;;;;8.27;6.83;;;;;;;;;;5003761;28;21179;-83
2022/04/29 03:56:52;;;;;;;7.90;7.00;;;;;;;;;;5006409;28;20541;-83
2022/04/29 03:59:57;;;;;;;8.87;6.83;;;;;;;;;;4998136;28;20546;-83
2022/04/29 04:03:06;;;;;;;7.83;7.03;;;;;;;;;;4987201;28;20629;-82
2022/04/29 04:09:35;;;;;;;8.57;7.10;;;;;;;;;;5019751;28;20921;-83
2022/04/29 04:12:46;;;;;;;9.43;7.37;;;;;;;;;;4997238;28;20617;-83
2022/04/29 04:16:09;;;;;;;8.63;7.00;;;;;;;;;;5007645;28;20554;-83
2022/04/29 04:19:14;;;;;;;8.57;6.93;;;;;;;;;;4998360;28;20550;-83
2022/04/29 04:22:19;;;;;;;9.07;7.40;;;;;;;;;;4997683;28;20541;-83
2022/04/29 04:25:23;;;;;;;9.47;7.10;;;;;;;;;;4997739;28;20534;-83
2022/04/29 04:28:28;;;;;;;7.37;6.53;;;;;;;;;;4997681;28;20558;-83
2022/04/29 04:31:38;;;;;;;8.17;7.37;;;;;;;;;;4996095;28;20649;-83
2022/04/29 04:34:52;;;;;;;9.57;6.20;;;;;;;;;;5008350;28;20538;-82
2022/04/29 04:37:56;;;;;;;8.97;6.97;;;;;;;;;;5008975;28;20549;-82
2022/04/29 04:41:17;;;;;;;9.17;6.40;;;;;;;;;;5008004;28;20546;-82
2022/04/29 04:44:21;;;;;;;7.63;6.83;;;;;;;;;;5008805;28;20969;-82
2022/04/29 04:47:26;;;;;;;9.23;6.53;;;;;;;;;;5008955;28;20546;-82
2022/04/29 04:50:48;;;;;;;13.27;7.63;;;;;;;;;;4997265;28;20938;-82
2022/04/29 04:53:53;;;;;;;7.77;6.80;;;;;;;;;;5007825;28;20625;-82
2022/04/29 04:56:59;;;;;;;8.07;7.27;;;;;;;;;;5008956;28;20541;-83
2022/04/29 05:00:04;;;;;;;8.80;7.43;;;;;;;;;;4985513;28;20974;-80
2022/04/29 05:03:29;;;;;;;11.60;7.00;;;;;;;;;;5005418;28;20637;-82
2022/04/29 05:06:52;;;;;;;8.20;6.87;;;;;;;;;;5006527;28;21100;-82
2022/04/29 05:09:57;;;;;;;8.27;6.77;;;;;;;;;;5007175;28;20601;-82
2022/04/29 05:13:02;;;;;;;9.17;7.37;;;;;;;;;;5006805;28;20210;-82
2022/04/29 05:16:07;;;;;;;10.03;7.30;;;;;;;;;;4984378;28;20183;-80
2022/04/29 05:19:29;;;;;;;11.40;8.40;;;;;;;;;;4993250;28;20182;-80
2022/04/29 05:22:33;;;;;;;18.80;13.07;;;;;;;;;;5017627;28;20213;-81
2022/04/29 05:25:37;;;;;;;16.63;12.13;;;;;;;;;;4984768;28;20605;-83
2022/04/29 05:29:00;;;;;;;12.80;8.50;;;;;;;;;;4995639;28;20558;-83
2022/04/29 05:32:29;;;;;;;10.50;7.93;;;;;;;;;;5003518;28;20225;-80
2022/04/29 05:35:52;;;;;;;8.37;7.00;;;;;;;;;;5004500;28;20178;-83
2022/04/29 05:42:41;;;;;;;8.97;7.67;;;;;;;;;;5017909;28;20222;-82
2022/04/29 05:45:45;;;;;;;10.73;7.30;;;;;;;;;;5006706;28;20178;-82
2022/04/29 05:48:49;;;;;;;15.37;7.07;;;;;;;;;;5008550;28;20202;-84
2022/04/29 05:51:54;;;;;;;15.97;7.83;;;;;;;;;;5006415;28;20230;-83
2022/04/29 05:55:00;;;;;;;9.67;7.70;;;;;;;;;;5018097;28;20186;-83
2022/04/29 05:58:09;;;;;;;11.07;6.83;;;;;;;;;;4994159;28;20178;-83
2022/04/29 06:01:15;;;;;;;8.83;7.40;;;;;;;;;;5005939;28;20633;-81
2022/04/29 06:04:19;;;;;;;9.80;7.77;;;;;;;;;;5017223;28;20219;-80
2022/04/29 06:07:23;;;;;;;9.07;7.70;;;;;;;;;;5016828;28;20186;-81
2022/04/29 06:10:27;;;;;;;8.50;7.40;;;;;;;;;;5017159;28;20649;-81
2022/04/29 06:13:33;;;;;;;9.93;6.90;;;;;;;;;;4994083;28;20222;-82
2022/04/29 06:16:55;;;;;;;8.23;7.00;;;;;;;;;;5004572;28;20179;-82
2022/04/29 06:20:17;;;;;;;10.73;7.47;;;;;;;;;;4995376;28;20626;-82
2022/04/29 06:23:40;;;;;;;9.23;6.80;;;;;;;;;;5003910;28;20218;-83
2022/04/29 06:26:47;;;;;;;10.30;7.47;;;;;;;;;;5007933;28;20178;-84
2022/04/29 06:29:52;;;;;;;12.23;7.90;;;;;;;;;;4995003;28;20174;-83
2022/04/29 06:32:57;;;;;;;10.43;7.40;;;;;;;;;;5007152;28;20233;-82
2022/04/29 06:36:06;;;;;;;8.97;7.80;;;;;;;;;;5017959;28;20183;-82
2022/04/29 06:39:10;;;;;;;10.80;8.30;;;;;;;;;;4994979;28;20183;-82
2022/04/29 06:42:43;;;;;;;10.57;7.73;;;;;;;;;;5013295;28;20210;-82
2022/04/29 06:46:07;;;;;;;10.03;7.93;;;;;;;;;;5003554;28;20282;-83
2022/04/29 06:49:29;;;;;;;15.50;7.77;;;;;;;;;;4995420;28;20629;-83
2022/04/29 06:52:52;;;;;;;9.50;7.90;;;;;;;;;;4994687;28;20238;-83
2022/04/29 06:55:58;;;;;;;8.70;7.80;;;;;;;;;;5005989;28;20178;-82
2022/04/29 06:59:03;;;;;;;9.60;7.63;;;;;;;;;;5006097;28;20574;-82
2022/04/29 07:02:11;;;;;;;8.87;7.93;;;;;;;;;;5017985;28;20182;-82
2022/04/29 07:05:16;;;;;;;8.73;7.50;;;;;;;;;;5007499;28;20178;-83
2022/04/29 07:08:21;;;;;;;9.47;7.97;;;;;;;;;;5005083;28;20197;-83
2022/04/29 07:11:43;;;;;;;10.90;8.40;;;;;;;;;;4993649;28;20210;-83
2022/04/29 07:14:57;;;;;;;10.43;8.27;;;;;;;;;;4982494;28;20182;-83
2022/04/29 07:18:03;;;;;;;10.63;7.87;;;;;;;;;;4993950;28;20175;-83
2022/04/29 07:21:07;;;;;;;11.20;8.17;;;;;;;;;;5016942;28;20658;-82
2022/04/29 07:24:12;;;;;;;8.53;7.53;;;;;;;;;;5006183;28;20209;-82
2022/04/29 07:27:17;;;;;;;11.23;7.07;;;;;;;;;;4994297;28;20194;-81
2022/04/29 07:30:21;;;;;;;9.83;8.07;;;;;;;;;;4993501;28;20179;-82
2022/04/29 07:33:32;;;;;;;13.03;8.23;;;;;;;;;;5008286;28;20225;-82
2022/04/29 07:43:40;;;;;;;9.30;6.90;;;;;;;;;;5008575;28;20210;-81
2022/04/29 07:46:46;;;;;;;7.93;6.23;;;;;;;;;;5019590;28;20182;-81
2022/04/29 07:50:13;;;;;;;4.47;4.07;;;;;;;;;;5003258;28;20178;-81
2022/04/29 07:53:17;;;;;;;5.20;4.27;;;;;;;;;;5007926;28;20566;-81
2022/04/29 07:56:22;;;;;;;5.07;4.23;;;;;;;;;;5020034;28;20178;-81
2022/04/29 07:59:28;;;;;;;5.47;4.00;;;;;;;;;;5019121;28;20178;-81
2022/04/29 08:02:52;;;;;;;4.70;3.73;;;;;;;;;;4994594;28;20222;-82
2022/04/29 08:06:11;;;;;;;5.07;3.53;;;;;;;;;;5018499;28;20182;-82
2022/04/29 08:09:15;;;;;;;4.57;3.50;;;;;;;;;;4997800;28;20190;-82
2022/04/29 08:12:21;;;;;;;3.93;3.00;;;;;;;;;;5008859;28;20206;-82
2022/04/29 08:16:01;;;;;;;4.37;3.30;;;;;;;;;;4993087;28;20206;-83
2022/04/29 08:19:18;;;;;;;5.50;3.37;;;;;;;;;;5009199;28;20186;-82
2022/04/29 08:22:48;;;;;;;3.07;2.77;;;;;;;;;;5013289;28;20213;-82
2022/04/29 08:25:52;;;;;;;4.67;3.23;;;;;;;;;;4987284;28;20197;-83
2022/04/29 08:28:58;;;;;;;4.83;3.80;;;;;;;;;;4987120;28;20198;-83
2022/04/29 08:32:06;;;;;;;5.73;3.30;;;;;;;;;;4998618;28;20222;-83
2022/04/29 08:35:14;;;;;;;4.67;3.30;;;;;;;;;;4998884;28;20198;-83
2022/04/29 08:38:19;;;;;;;6.93;3.20;;;;;;;;;;5010335;28;20187;-83
2022/04/29 08:41:26;;;;;;;5.20;4.10;;;;;;;;;;5011389;28;20178;-83
2022/04/29 08:44:31;;;;;;;5.17;3.47;;;;;;;;;;5008917;28;20700;-82
2022/04/29 08:47:54;;;;;;;3.93;3.47;;;;;;;;;;5011414;28;20610;-82
2022/04/29 08:50:59;;;;;;;6.70;3.20;;;;;;;;;;5008079;28;20182;-82
2022/04/29 08:54:04;;;;;;;6.07;4.27;;;;;;;;;;5008374;28;20234;-82
2022/04/29 09:00:30;;;;;;;4.30;3.63;;;;;;;;;;4997249;28;20634;-82
2022/04/29 09:03:35;;;;;;;4.23;3.37;;;;;;;;;;4996907;28;20217;-82
2022/04/29 09:06:48;;;;;;;4.13;3.47;;;;;;;;;;5008501;28;20182;-82
2022/04/29 09:10:05;;;;;;;8.37;4.00;;;;;;;;;;5007772;28;20669;-82
2022/04/29 09:13:11;;;;;;;7.00;4.20;;;;;;;;;;5008924;28;20230;-82
2022/04/29 09:16:15;;;;;;;7.00;4.03;;;;;;;;;;5008865;28;20514;-82
2022/04/29 09:19:31;;;;;;;4.60;4.00;;;;;;;;;;4996588;28;20185;-82
2022/04/29 09:22:38;;;;;;;4.67;3.47;;;;;;;;;;5019134;28;20218;-83
2022/04/29 09:26:05;;;;;;;5.07;3.87;;;;;;;;;;4996976;28;20182;-83
2022/04/29 09:29:39;;;;;;;5.87;4.30;;;;;;;;;;5014888;28;20187;-83
2022/04/29 09:32:48;;;;;;;6.83;4.10;;;;;;;;;;4996462;28;20269;-83
2022/04/29 09:36:24;;;;;;;7.03;4.17;;;;;;;;;;5002347;28;20210;-83
2022/04/29 09:39:30;;;;;;;5.30;4.40;;;;;;;;;;5008578;28;20185;-83
2022/04/29 09:42:44;;;;;;;5.77;4.53;;;;;;;;;;5009084;28;20555;-83
2022/04/29 09:45:51;;;;;;;6.37;4.30;;;;;;;;;;4997447;28;20182;-83
2022/04/29 09:48:55;;;;;;;6.03;4.10;;;;;;;;;;4997735;28;20198;-83
2022/04/29 09:52:00;;;;;;;8.73;4.27;;;;;;;;;;4986258;28;20202;-83
2022/04/29 09:55:18;;;;;;;5.13;4.20;;;;;;;;;;5018611;28;20186;-83
2022/04/29 09:58:23;;;;;;;6.57;4.20;;;;;;;;;;5018746;28;20661;-83
2022/04/29 10:01:29;;;;;;;5.40;4.27;;;;;;;;;;4995994;28;20186;-83
2022/04/29 10:04:35;;;;;;;7.57;4.63;;;;;;;;;;4995590;28;20563;-83
2022/04/29 10:07:40;;;;;;;5.63;3.93;;;;;;;;;;5006874;28;20179;-83
2022/04/29 10:10:46;;;;;;;5.67;4.13;;;;;;;;;;4996181;28;20547;-82
2022/04/29 10:13:50;;;;;;;7.20;4.30;;;;;;;;;;5006490;28;20238;-82
2022/04/29 10:24:08;;;;;;;6.10;4.67;;;;;;;;;;5006422;28;20214;-82
2022/04/29 10:27:13;;;;;;;5.77;4.30;;;;;;;;;;4984318;28;20182;-82
2022/04/29 10:30:28;;;;;;;4.90;4.40;;;;;;;;;;4994942;28;20186;-82
2022/04/29 10:33:33;;;;;;;8.37;4.87;;;;;;;;;;5017479;28;20234;-82
2022/04/29 10:36:45;;;;;;;5.27;4.60;;;;;;;;;;5006352;28;20182;-82
2022/04/29 10:40:10;;;;;;;7.47;4.10;;;;;;;;;;5018412;28;20190;-82
2022/04/29 10:43:18;;;;;;;7.17;5.40;;;;;;;;;;5006118;28;20226;-83
2022/04/29 10:46:39;;;;;;;5.50;4.60;;;;;;;;;;5007417;28;20183;-83
2022/04/29 10:49:49;;;;;;;5.07;4.57;;;;;;;;;;4996414;28;20186;-83
2022/04/29 10:53:05;;;;;;;6.73;4.80;;;;;;;;;;5017810;28;20221;-83
2022/04/29 10:56:30;;;;;;;5.30;4.80;;;;;;;;;;5018917;28;20182;-83
2022/04/29 11:00:00;;;;;;;5.90;4.77;;;;;;;;;;5006200;28;20181;-83
2022/04/29 11:03:38;;;;;;;8.27;5.17;;;;;;;;;;5017538;28;20546;-83
2022/04/29 11:06:45;;;;;;;5.40;4.57;;;;;;;;;;5006903;28;20661;-83
2022/04/29 11:09:49;;;;;;;6.60;4.90;;;;;;;;;;4999325;28;20515;-84
2022/04/29 11:12:55;;;;;;;6.70;5.50;;;;;;;;;;5008631;28;20225;-84
2022/04/29 11:16:19;;;;;;;6.47;5.47;;;;;;;;;;4998028;28;20186;-84
2022/04/29 11:20:12;;;;;;;7.43;5.00;;;;;;;;;;5004376;28;20194;-84
2022/04/29 11:26:54;;;;;;;5.80;4.83;;;;;;;;;;5008327;28;20515;-84
2022/04/29 11:30:01;;;;;;;5.00;4.30;;;;;;;;;;5008107;28;20194;-84
2022/04/29 11:33:14;;;;;;;4.80;4.27;;;;;;;;;;5018171;28;20230;-84
2022/04/29 11:36:19;;;;;;;6.87;4.30;;;;;;;;;;5008248;28;20522;-84
2022/04/29 11:39:22;;;;;;;4.13;3.70;;;;;;;;;;5008388;28;20182;-84
2022/04/29 11:42:27;;;;;;;5.60;4.60;;;;;;;;;;4996729;28;20190;-84
2022/04/29 11:45:31;;;;;;;5.00;4.40;;;;;;;;;;5007963;28;20170;-84
2022/04/29 11:48:53;;;;;;;5.57;4.83;;;;;;;;;;4996389;28;20178;-84
2022/04/29 11:52:32;;;;;;;6.03;4.87;;;;;;;;;;4997224;28;20522;-84
2022/04/29 11:55:37;;;;;;;5.13;4.60;;;;;;;;;;5007992;28;20179;-84
2022/04/29 11:58:41;;;;;;;6.93;4.63;;;;;;;;;;5019179;28;20174;-84
2022/04/29 12:01:45;;;;;;;4.87;4.10;;;;;;;;;;5007782;28;20178;-84
2022/04/29 12:05:00;;;;;;;4.70;4.20;;;;;;;;;;4996069;28;20198;-84
2022/04/29 12:08:05;;;;;;;6.50;4.23;;;;;;;;;;5007431;28;20179;-84
2022/04/29 12:11:25;;;;;;;5.70;4.40;;;;;;;;;;5007733;28;20186;-84
2022/04/29 12:14:29;;;;;;;5.33;4.03;;;;;;;;;;5007014;28;20689;-84
2022/04/29 12:17:36;;;;;;;7.10;4.37;;;;;;;;;;4996643;28;20622;-84
2022/04/29 12:20:40;;;;;;;7.87;4.57;;;;;;;;;;5006630;28;20546;-84
2022/04/29 12:23:45;;;;;;;6.03;4.90;;;;;;;;;;4995679;28;20218;-84
2022/04/29 12:27:09;;;;;;;6.77;4.53;;;;;;;;;;5007237;28;20634;-84
2022/04/29 12:37:28;;;;;;;5.80;3.90;;;;;;;;;;5008950;28;20186;-83
2022/04/29 12:40:32;;;;;;;5.70;4.07;;;;;;;;;;5008974;28;20186;-83
2022/04/29 12:43:41;;;;;;;6.33;4.20;;;;;;;;;;4987913;28;20696;-83
2022/04/29 12:46:45;;;;;;;5.23;4.00;;;;;;;;;;5008038;28;20182;-84
2022/04/29 12:49:51;;;;;;;6.27;4.80;;;;;;;;;;4995161;28;20201;-84
2022/04/29 12:53:02;;;;;;;6.10;4.50;;;;;;;;;;4995303;28;20218;-84
2022/04/29 12:56:07;;;;;;;4.33;3.93;;;;;;;;;;5018233;28;20187;-84
2022/04/29 12:59:22;;;;;;;6.03;4.17;;;;;;;;;;5006652;28;20193;-84
2022/04/29 13:02:26;;;;;;;6.53;4.20;;;;;;;;;;5006811;28;20186;-84
2022/04/29 13:05:31;;;;;;;5.10;3.83;;;;;;;;;;5007524;28;20182;-81
2022/04/29 13:08:39;;;;;;;5.90;4.37;;;;;;;;;;4995575;28;20190;-81
2022/04/29 13:11:43;;;;;;;6.33;4.23;;;;;;;;;;4995805;28;20197;-81
2022/04/29 13:14:54;;;;;;;7.87;3.83;;;;;;;;;;4984096;28;20210;-83
2022/04/29 13:17:59;;;;;;;4.70;4.20;;;;;;;;;;5006288;28;20633;-84
2022/04/29 13:21:07;;;;;;;3.70;3.23;;;;;;;;;;4984019;28;20198;-84
2022/04/29 13:24:12;;;;;;;5.70;3.50;;;;;;;;;;5006562;28;20213;-83
2022/04/29 13:27:28;;;;;;;3.80;3.23;;;;;;;;;;5007168;28;20527;-83
2022/04/29 13:30:34;;;;;;;7.00;4.40;;;;;;;;;;5007811;28;20507;-83
2022/04/29 13:33:39;;;;;;;3.47;3.17;;;;;;;;;;4996512;28;20229;-84
2022/04/29 13:36:43;;;;;;;8.67;4.20;;;;;;;;;;4994515;28;20190;-84
2022/04/29 13:39:47;;;;;;;6.37;4.33;;;;;;;;;;5005578;28;20186;-84
2022/04/29 13:42:55;;;;;;;6.07;4.23;;;;;;;;;;5005738;28;20214;-84
2022/04/29 13:45:59;;;;;;;8.63;3.63;;;;;;;;;;4994748;28;20179;-84
2022/04/29 13:49:03;;;;;;;6.83;4.30;;;;;;;;;;5017156;28;20178;-84
2022/04/29 13:55:30;;;;;;;5.27;3.60;;;;;;;;;;5005721;28;20669;-84
2022/04/29 13:58:35;;;;;;;4.53;3.67;;;;;;;;;;5016733;28;20178;-84
2022/04/29 14:01:39;;;;;;;5.90;4.17;;;;;;;;;;5005399;28;20631;-84
2022/04/29 14:04:44;;;;;;;7.53;3.93;;;;;;;;;;5005386;28;20174;-84
2022/04/29 14:07:48;;;;;;;7.30;3.90;;;;;;;;;;4994309;28;20186;-84
2022/04/29 14:10:53;;;;;;;6.97;4.13;;;;;;;;;;4983138;28;20186;-84
2022/04/29 14:13:57;;;;;;;7.53;3.67;;;;;;;;;;5016596;28;20230;-82
2022/04/29 14:17:02;;;;;;;8.93;3.80;;;;;;;;;;4994609;28;20182;-81
2022/04/29 14:20:08;;;;;;;4.23;3.77;;;;;;;;;;4994377;28;20183;-81
2022/04/29 14:23:12;;;;;;;6.53;4.40;;;;;;;;;;4994065;28;20218;-81
2022/04/29 14:26:17;;;;;;;5.23;3.80;;;;;;;;;;5005637;28;20534;-81
2022/04/29 14:29:21;;;;;;;5.67;4.27;;;;;;;;;;4994320;28;20186;-81
2022/04/29 14:32:25;;;;;;;5.03;4.03;;;;;;;;;;4994219;28;20183;-82
2022/04/29 14:35:30;;;;;;;5.17;4.10;;;;;;;;;;5005135;28;20214;-81
2022/04/29 14:38:34;;;;;;;6.70;4.23;;;;;;;;;;4994065;28;20182;-81
2022/04/29 14:41:38;;;;;;;5.17;4.07;;;;;;;;;;5004796;28;20190;-81
2022/04/29 14:44:42;;;;;;;5.17;3.53;;;;;;;;;;4993786;28;20194;-81
2022/04/29 14:47:47;;;;;;;6.13;4.27;;;;;;;;;;4993874;28;20198;-81
2022/04/29 14:50:53;;;;;;;5.37;3.47;;;;;;;;;;5005078;28;20661;-81
2022/04/29 14:53:58;;;;;;;4.50;4.10;;;;;;;;;;5016291;28;20226;-81
2022/04/29 14:57:03;;;;;;;5.40;3.70;;;;;;;;;;4993879;28;20182;-81
2022/04/29 15:00:09;;;;;;;6.47;4.10;;;;;;;;;;5005079;28;20354;-81
2022/04/29 15:03:13;;;;;;;4.87;3.77;;;;;;;;;;5016688;28;20214;-81
2022/04/29 15:06:17;;;;;;;6.33;3.90;;;;;;;;;;4993724;28;20193;-81
2022/04/29 15:16:06;;;;;;;7.17;4.63;;;;;;;;;;5006037;28;20179;-82
2022/04/29 15:19:10;;;;;;;6.33;4.23;;;;;;;;;;4994041;28;20550;-82
2022/04/29 15:22:16;;;;;;;7.13;4.40;;;;;;;;;;5005105;28;20198;-82
2022/04/29 15:25:20;;;;;;;6.67;4.63;;;;;;;;;;5005508;28;20179;-82
2022/04/29 15:28:27;;;;;;;4.73;3.90;;;;;;;;;;5016614;28;20538;-82
2022/04/29 15:31:33;;;;;;;5.03;4.07;;;;;;;;;;5005498;28;20179;-82
2022/04/29 15:34:38;;;;;;;4.93;3.77;;;;;;;;;;5006030;28;20226;-82
2022/04/29 15:37:42;;;;;;;5.30;3.47;;;;;;;;;;4993785;28;20198;-81
2022/04/29 15:40:47;;;;;;;6.07;3.90;;;;;;;;;;5016130;28;20182;-81
2022/04/29 15:43:51;;;;;;;8.63;4.43;;;;;;;;;;5004506;28;20214;-81
2022/04/29 15:46:55;;;;;;;5.03;3.93;;;;;;;;;;5004556;28;20629;-81
2022/04/29 15:49:59;;;;;;;4.90;4.40;;;;;;;;;;4993593;28;20187;-81
2022/04/29 15:53:04;;;;;;;5.63;4.80;;;;;;;;;;4994583;28;20209;-81
2022/04/29 15:56:12;;;;;;;7.73;4.40;;;;;;;;;;4997039;28;20213;-84
2022/04/29 15:59:16;;;;;;;7.47;5.30;;;;;;;;;;5019233;28;20178;-83
2022/04/29 16:02:20;;;;;;;7.80;5.03;;;;;;;;;;5007778;28;20183;-83
2022/04/29 16:05:25;;;;;;;7.83;5.13;;;;;;;;;;5007878;28;20193;-83
2022/04/29 16:08:28;;;;;;;6.57;4.83;;;;;;;;;;4996142;28;20558;-83
2022/04/29 16:11:33;;;;;;;6.23;4.83;;;;;;;;;;5020597;28;20178;-84
2022/04/29 16:14:38;;;;;;;5.93;5.07;;;;;;;;;;5018787;28;20210;-83
2022/04/29 16:21:09;;;;;;;7.17;4.60;;;;;;;;;;5007914;28;20182;-83
2022/04/29 16:27:35;;;;;;;7.67;4.67;;;;;;;;;;5007832;28;20187;-84
2022/04/29 16:30:44;;;;;;;8.33;4.37;;;;;;;;;;5007748;28;20186;-84
2022/04/29 16:33:51;;;;;;;8.90;4.80;;;;;;;;;;5018195;28;20574;-83
2022/04/29 16:36:55;;;;;;;7.43;4.13;;;;;;;;;;5007184;28;20526;-84
2022/04/29 16:39:59;;;;;;;10.10;4.13;;;;;;;;;;4985032;28;20511;-84
2022/04/29 16:43:07;;;;;;;4.83;4.23;;;;;;;;;;4995751;28;20214;-83
2022/04/29 16:46:11;;;;;;;6.20;4.10;;;;;;;;;;4995666;28;20174;-83
2022/04/29 16:49:15;;;;;;;6.10;3.93;;;;;;;;;;4996002;28;20178;-84
2022/04/29 16:52:20;;;;;;;7.80;4.83;;;;;;;;;;5018225;28;20186;-83
2022/04/29 16:55:25;;;;;;;6.90;4.27;;;;;;;;;;4984577;28;20226;-84
2022/04/29 16:58:55;;;;;;;6.87;4.70;;;;;;;;;;4995420;28;20190;-84
2022/04/29 17:02:00;;;;;;;7.43;5.10;;;;;;;;;;4996151;28;20182;-84
2022/04/29 17:05:05;;;;;;;6.57;4.33;;;;;;;;;;5005792;28;20183;-84
2022/04/29 17:08:11;;;;;;;7.00;4.63;;;;;;;;;;5006928;28;20186;-84
2022/04/29 17:11:15;;;;;;;7.63;4.40;;;;;;;;;;5006452;28;20182;-84
2022/04/29 17:14:21;;;;;;;6.83;4.50;;;;;;;;;;4996342;28;20218;-84
2022/04/29 17:17:25;;;;;;;7.00;4.80;;;;;;;;;;5006511;28;20181;-84
2022/04/29 17:20:29;;;;;;;6.83;4.63;;;;;;;;;;4994915;28;20542;-84
2022/04/29 17:23:33;;;;;;;5.30;4.80;;;;;;;;;;5006419;28;20222;-83
2022/04/29 17:26:40;;;;;;;7.77;4.60;;;;;;;;;;4994589;28;20653;-84
2022/04/29 17:29:44;;;;;;;9.77;4.63;;;;;;;;;;5005870;28;20182;-84
2022/04/29 17:32:49;;;;;;;6.43;4.60;;;;;;;;;;4994688;28;20613;-84
2022/04/29 17:35:53;;;;;;;6.07;4.07;;;;;;;;;;5017664;28;20218;-83
2022/04/29 17:39:00;;;;;;;10.03;6.43;;;;;;;;;;5006279;28;20182;-82
2022/04/29 17:42:25;;;;;;;42.27;26.50;;;;;;;;;;5006905;28;20205;-82
2022/04/29 17:45:29;;;;;;;82.40;50.33;;;;;;;;;;4984531;28;20186;-82
2022/04/29 17:48:33;;;;;;;71.77;41.77;;;;;;;;;;4984474;28;20181;-82
2022/04/29 17:51:37;;;;;;;36.37;23.40;;;;;;;;;;4984552;28;20194;-82
2022/04/29 17:54:41;;;;;;;18.43;9.87;;;;;;;;;;4995544;28;20204;-82
2022/04/29 17:57:46;;;;;;;13.50;7.77;;;;;;;;;;5006956;28;20200;-82
2022/04/29 18:00:50;;;;;;;6.63;4.80;;;;;;;;;;5006751;28;20630;-82
2022/04/29 18:03:54;;;;;;;4.67;3.80;;;;;;;;;;5007204;28;20214;-83
2022/04/29 18:06:58;;;;;;;4.63;2.93;;;;;;;;;;5018665;28;20617;-83
2022/04/29 18:10:03;;;;;;;4.33;2.80;;;;;;;;;;5007638;28;20178;-83
2022/04/29 18:13:11;;;;;;;4.00;2.77;;;;;;;;;;5006593;28;20221;-83
2022/04/29 18:16:15;;;;;;;6.73;3.13;;;;;;;;;;4995709;28;20210;-83
2022/04/29 18:19:19;;;;;;;4.50;3.10;;;;;;;;;;4995632;28;20186;-83
2022/04/29 18:22:24;;;;;;;3.43;2.97;;;;;;;;;;5016521;28;20538;-83
2022/04/29 18:25:31;;;;;;;4.97;3.07;;;;;;;;;;4994277;28;20178;-83
2022/04/29 18:28:35;;;;;;;5.47;3.33;;;;;;;;;;4993738;28;20194;-83
2022/04/29 18:31:40;;;;;;;4.27;3.07;;;;;;;;;;5005329;28;20182;-83
2022/04/29 18:34:44;;;;;;;9.30;3.30;;;;;;;;;;5005345;28;20610;-83
2022/04/29 18:37:48;;;;;;;4.73;3.13;;;;;;;;;;4993812;28;20206;-83
2022/04/29 18:40:52;;;;;;;7.90;3.47;;;;;;;;;;4993795;28;20197;-83
2022/04/29 18:43:56;;;;;;;5.83;3.43;;;;;;;;;;5004802;28;20222;-83
2022/04/29 18:47:00;;;;;;;3.93;3.23;;;;;;;;;;5007149;28;20170;-83
2022/04/29 18:50:05;;;;;;;4.00;3.30;;;;;;;;;;5007661;28;20178;-83
2022/04/29 18:53:10;;;;;;;7.13;3.57;;;;;;;;;;5006888;28;20221;-81
2022/04/29 18:56:14;;;;;;;6.10;3.00;;;;;;;;;;4995485;28;20225;-81
2022/04/29 18:59:20;;;;;;;9.90;3.10;;;;;;;;;;4993475;28;20220;-81
2022/04/29 19:02:23;;;;;;;4.50;3.43;;;;;;;;;;4994303;28;20202;-82
2022/04/29 19:05:28;;;;;;;7.20;3.30;;;;;;;;;;5016899;28;20193;-82
2022/04/29 19:08:32;;;;;;;7.30;3.30;;;;;;;;;;5016723;28;20197;-82
2022/04/29 19:11:36;;;;;;;5.43;3.13;;;;;;;;;;5016858;28;20178;-82
2022/04/29 19:14:41;;;;;;;4.50;3.33;;;;;;;;;;4994423;28;20530;-82
2022/04/29 19:17:45;;;;;;;4.37;3.17;;;;;;;;;;5005724;28;20175;-82
2022/04/29 19:20:50;;;;;;;5.50;3.37;;;;;;;;;;5005429;28;20182;-82
2022/04/29 19:23:54;;;;;;;5.77;3.60;;;;;;;;;;5017062;28;20214;-82
2022/04/29 19:26:59;;;;;;;4.77;2.73;;;;;;;;;;5006441;28;20178;-82
2022/04/29 19:30:05;;;;;;;4.50;2.90;;;;;;;;;;4998881;28;20514;-82
2022/04/29 19:33:09;;;;;;;5.10;3.53;;;;;;;;;;5021206;28;20573;-82
2022/04/29 19:36:17;;;;;;;3.50;2.83;;;;;;;;;;5010630;28;20205;-83